createdAt,value
2023-04-19T00:02:11.205Z,100334.25
2023-04-19T00:05:14.283Z,100339.50
2023-04-19T00:08:16.858Z,100327.22
2023-04-19T00:11:19.982Z,100328.91
2023-04-19T00:14:22.651Z,100330.16
2023-04-19T00:17:25.186Z,100324.47
2023-04-19T00:20:28.171Z,100319.25
2023-04-19T00:23:30.933Z,100321.16
2023-04-19T00:26:33.612Z,100314.91
2023-04-19T00:29:37.135Z,100303.25
2023-04-19T00:32:41.081Z,100306.53
2023-04-19T00:35:44.220Z,100302.91
2023-04-19T00:38:48.903Z,100305.81
2023-04-19T00:41:51.920Z,100293.91
2023-04-19T00:44:54.848Z,100293.06
2023-04-19T00:47:57.465Z,100295.56
2023-04-19T00:51:00.448Z,100285.81
2023-04-19T00:54:04.000Z,100281.88
2023-04-19T00:57:06.842Z,100285.84
2023-04-19T01:00:10.430Z,100280.84
2023-04-19T01:03:13.671Z,100283.03
2023-04-19T01:06:16.541Z,100277.75
2023-04-19T01:09:19.316Z,100279.38
2023-04-19T01:12:23.236Z,100279.19
2023-04-19T01:15:26.460Z,100287.06
2023-04-19T01:18:37.709Z,100275.41
2023-04-19T01:21:42.815Z,100271.03
2023-04-19T01:24:45.766Z,100271.78
2023-04-19T01:27:48.692Z,100270.22
2023-04-19T01:30:53.933Z,100257.91
2023-04-19T01:33:56.714Z,100263.63
2023-04-19T01:36:59.738Z,100261.16
2023-04-19T01:40:05.532Z,100253.69
2023-04-19T01:43:08.584Z,100246.63
2023-04-19T01:46:11.293Z,100244.13
2023-04-19T01:49:14.713Z,100247.50
2023-04-19T01:52:18.740Z,100245.44
2023-04-19T01:55:21.630Z,100239.03
2023-04-19T01:58:24.149Z,100229.13
2023-04-19T02:01:27.286Z,100245.69
2023-04-19T02:04:29.912Z,100231.66
2023-04-19T02:07:34.721Z,100240.44
2023-04-19T02:10:37.224Z,100233.41
2023-04-19T02:13:40.597Z,100228.72
2023-04-19T02:16:43.593Z,100232.22
2023-04-19T02:19:46.349Z,100231.47
2023-04-19T02:22:49.242Z,100224.97
2023-04-19T02:25:52.268Z,100228.66
2023-04-19T02:28:55.013Z,100225.75
2023-04-19T02:31:58.084Z,100225.63
2023-04-19T02:35:01.009Z,100220.53
2023-04-19T02:38:05.610Z,100220.47
2023-04-19T02:41:08.066Z,100215.59
2023-04-19T02:44:15.351Z,100204.09
2023-04-19T02:47:19.496Z,100209.44
2023-04-19T02:50:22.200Z,100204.47
2023-04-19T02:53:26.763Z,100202.31
2023-04-19T02:56:29.588Z,100195.28
2023-04-19T02:59:33.009Z,100202.47
2023-04-19T03:02:38.333Z,100195.75
2023-04-19T03:05:42.270Z,100193.09
2023-04-19T03:08:45.546Z,100187.78
2023-04-19T03:11:48.074Z,100181.13
2023-04-19T03:14:52.550Z,100188.53
2023-04-19T03:17:55.457Z,100182.13
2023-04-19T03:20:58.862Z,100174.63
2023-04-19T03:24:05.384Z,100174.19
2023-04-19T03:27:08.478Z,100173.78
2023-04-19T03:30:12.960Z,100170.03
2023-04-19T03:33:16.638Z,100173.78
2023-04-19T03:36:19.168Z,100171.59
2023-04-19T03:39:23.276Z,100163.03
2023-04-19T03:42:31.129Z,100164.47
2023-04-19T03:45:41.193Z,100163.41
2023-04-19T03:48:44.017Z,100168.44
2023-04-19T03:51:46.820Z,100168.81
2023-04-19T03:54:49.330Z,100167.06
2023-04-19T03:58:05.445Z,100173.34
2023-04-19T04:01:22.503Z,100172.72
2023-04-19T04:04:26.305Z,100167.91
2023-04-19T04:07:30.372Z,100165.41
2023-04-19T04:10:33.378Z,100158.53
2023-04-19T04:13:36.373Z,100163.84
2023-04-19T04:16:45.995Z,100155.75
2023-04-19T04:19:50.432Z,100165.91
2023-04-19T04:22:54.384Z,100159.34
2023-04-19T04:26:00.759Z,100159.97
2023-04-19T04:29:13.830Z,100170.03
2023-04-19T04:32:23.228Z,100163.16
2023-04-19T04:35:30.786Z,100161.91
2023-04-19T04:38:42.019Z,100167.41
2023-04-19T04:41:45.206Z,100165.38
2023-04-19T04:44:47.993Z,100161.19
2023-04-19T04:47:51.880Z,100166.66
2023-04-19T04:50:55.530Z,100160.72
2023-04-19T04:53:58.751Z,100165.25
2023-04-19T04:57:02.897Z,100168.72
2023-04-19T05:00:07.066Z,100164.31
2023-04-19T05:03:18.239Z,100163.50
2023-04-19T05:06:27.517Z,100155.63
2023-04-19T05:09:30.498Z,100144.75
2023-04-19T05:12:34.847Z,100151.47
2023-04-19T05:15:37.867Z,100149.53
2023-04-19T05:18:41.550Z,100153.47
2023-04-19T05:21:44.733Z,100147.56
2023-04-19T05:24:50.436Z,100146.31
2023-04-19T05:27:53.948Z,100153.53
2023-04-19T05:30:56.593Z,100155.13
2023-04-19T05:34:02.556Z,100155.25
2023-04-19T05:37:05.632Z,100159.09
2023-04-19T05:40:10.343Z,100159.78
2023-04-19T05:43:13.325Z,100160.25
2023-04-19T05:46:16.261Z,100160.50
2023-04-19T05:49:18.843Z,100162.25
2023-04-19T05:52:38.577Z,100160.03
2023-04-19T05:55:41.234Z,100169.09
2023-04-19T05:58:43.786Z,100173.00
2023-04-19T06:01:46.519Z,100174.75
2023-04-19T06:04:49.656Z,100171.63
2023-04-19T06:08:02.571Z,100172.84
2023-04-19T06:11:15.756Z,100175.63
2023-04-19T06:14:29.379Z,100175.38
2023-04-19T06:17:32.407Z,100169.44
2023-04-19T06:20:35.086Z,100170.91
2023-04-19T06:23:37.924Z,100170.75
2023-04-19T06:26:40.940Z,100165.75
2023-04-19T06:29:43.550Z,100163.56
2023-04-19T06:32:46.123Z,100171.59
2023-04-19T06:35:48.635Z,100177.44
2023-04-19T06:38:51.571Z,100173.44
2023-04-19T06:41:54.214Z,100174.41
2023-04-19T06:44:58.259Z,100166.88
2023-04-19T06:48:00.995Z,100176.09
2023-04-19T06:51:03.868Z,100176.72
2023-04-19T06:54:06.600Z,100175.75
2023-04-19T06:57:09.141Z,100174.69
2023-04-19T07:00:12.255Z,100176.16
2023-04-19T07:03:15.129Z,100173.00
2023-04-19T07:06:18.057Z,100161.94
2023-04-19T07:09:20.646Z,100179.38
2023-04-19T07:12:23.323Z,100169.00
2023-04-19T07:15:25.955Z,100174.19
2023-04-19T07:18:28.611Z,100160.81
2023-04-19T07:21:33.592Z,100168.00
2023-04-19T07:24:36.191Z,100171.22
2023-04-19T07:27:38.864Z,100171.69
2023-04-19T07:30:41.618Z,100166.19
2023-04-19T07:33:45.263Z,100168.09
2023-04-19T07:36:47.999Z,100161.72
2023-04-19T07:39:50.717Z,100157.75
2023-04-19T07:42:55.537Z,100159.31
2023-04-19T07:45:58.535Z,100164.66
2023-04-19T07:49:01.062Z,100165.13
2023-04-19T07:52:08.007Z,100168.22
2023-04-19T07:55:10.961Z,100165.34
2023-04-19T07:58:13.567Z,100165.78
2023-04-19T08:01:16.342Z,100171.56
2023-04-19T08:04:20.763Z,100166.13
2023-04-19T08:07:24.160Z,100168.19
2023-04-19T08:10:28.898Z,100156.75
2023-04-19T08:13:31.668Z,100159.94
2023-04-19T08:17:14.609Z,100156.25
2023-04-19T08:19:57.275Z,100158.50
2023-04-19T08:23:07.520Z,100152.00
2023-04-19T08:26:16.922Z,100148.09
2023-04-19T08:29:23.341Z,100149.94
2023-04-19T08:32:26.250Z,100147.94
2023-04-19T08:35:29.034Z,100156.38
2023-04-19T08:38:32.070Z,100144.88
2023-04-19T08:41:35.147Z,100139.34
2023-04-19T08:44:53.836Z,100142.38
2023-04-19T08:48:04.311Z,100130.44
2023-04-19T08:51:07.582Z,100134.53
2023-04-19T08:54:11.381Z,100136.22
2023-04-19T08:57:15.145Z,100135.06
2023-04-19T09:00:18.418Z,100129.03
2023-04-19T09:03:21.222Z,100112.94
2023-04-19T09:06:24.621Z,100116.53
2023-04-19T09:12:37.703Z,100106.25
2023-04-19T09:15:43.767Z,100100.28
2023-04-19T09:19:15.315Z,100094.69
2023-04-19T09:22:25.836Z,100091.91
2023-04-19T09:25:49.250Z,100108.50
2023-04-19T09:29:03.788Z,100094.81
2023-04-19T09:32:07.046Z,100098.72
2023-04-19T09:35:09.782Z,100093.56
2023-04-19T09:38:12.463Z,100098.97
2023-04-19T09:41:17.571Z,100110.72
2023-04-19T09:44:53.041Z,100109.53
2023-04-19T09:47:43.625Z,100114.09
2023-04-19T09:51:10.569Z,100104.84
2023-04-19T09:54:17.297Z,100107.59
2023-04-19T09:57:19.918Z,100115.34
2023-04-19T10:00:23.200Z,100116.84
2023-04-19T10:03:30.442Z,100114.50
2023-04-19T10:06:51.915Z,100105.41
2023-04-19T10:10:11.756Z,100109.63
2023-04-19T10:16:27.339Z,100115.50
2023-04-19T10:19:31.458Z,100112.56
2023-04-19T10:22:38.875Z,100113.72
2023-04-19T10:25:47.862Z,100114.88
2023-04-19T10:28:50.684Z,100115.91
2023-04-19T10:31:53.588Z,100113.72
2023-04-19T10:35:04.983Z,100118.63
2023-04-19T10:38:16.557Z,100118.03
2023-04-19T10:41:19.672Z,100112.28
2023-04-19T10:44:22.675Z,100113.16
2023-04-19T10:47:45.149Z,100101.97
2023-04-19T10:51:19.576Z,100104.75
2023-04-19T10:54:30.198Z,100108.75
2023-04-19T10:58:02.860Z,100092.75
2023-04-19T11:01:41.102Z,100090.34
2023-04-19T11:04:58.079Z,100087.63
2023-04-19T11:08:01.942Z,100084.00
2023-04-19T11:11:04.633Z,100081.34
2023-04-19T11:14:08.771Z,100091.66
2023-04-19T11:17:16.702Z,100083.41
2023-04-19T11:20:23.170Z,100083.59
2023-04-19T11:23:26.252Z,100085.94
2023-04-19T11:26:28.886Z,100086.38
2023-04-19T11:29:31.510Z,100089.91
2023-04-19T11:32:34.926Z,100087.47
2023-04-19T11:35:37.526Z,100080.88
2023-04-19T11:38:40.561Z,100073.00
2023-04-19T11:41:43.343Z,100073.53
2023-04-19T11:44:51.861Z,100072.28
2023-04-19T11:47:54.570Z,100067.94
2023-04-19T11:50:59.075Z,100067.25
2023-04-19T11:54:01.668Z,100069.34
2023-04-19T11:57:06.785Z,100063.03
2023-04-19T12:00:12.114Z,100067.63
2023-04-19T12:03:15.975Z,100065.34
2023-04-19T12:06:22.562Z,100057.19
2023-04-19T12:09:25.266Z,100061.81
2023-04-19T12:12:34.107Z,100052.03
2023-04-19T12:15:44.577Z,100060.94
2023-04-19T12:18:50.028Z,100061.94
2023-04-19T12:21:52.723Z,100058.03
2023-04-19T12:24:56.068Z,100060.78
2023-04-19T12:27:59.766Z,100050.16
2023-04-19T12:31:02.327Z,100047.25
2023-04-19T12:34:04.828Z,100042.06
2023-04-19T12:37:07.469Z,100047.34
2023-04-19T12:40:10.652Z,100039.84
2023-04-19T12:43:13.269Z,100045.63
2023-04-19T12:46:15.973Z,100049.47
2023-04-19T12:49:20.094Z,100042.25
2023-04-19T12:52:22.699Z,100046.44
2023-04-19T12:55:25.583Z,100037.81
2023-04-19T12:58:28.401Z,100042.59
2023-04-19T13:01:32.386Z,100046.81
2023-04-19T13:04:36.358Z,100043.75
2023-04-19T13:07:39.243Z,100042.19
2023-04-19T13:10:41.897Z,100038.72
2023-04-19T13:13:44.814Z,100040.41
2023-04-19T13:16:47.988Z,100032.69
2023-04-19T13:19:51.079Z,100030.31
2023-04-19T13:22:53.852Z,100038.25
2023-04-19T13:25:56.716Z,100027.91
2023-04-19T13:28:59.378Z,100038.47
2023-04-19T13:32:02.024Z,100030.72
2023-04-19T13:35:05.226Z,100031.66
2023-04-19T13:38:07.786Z,100035.16
2023-04-19T13:41:10.546Z,100031.38
2023-04-19T13:44:13.301Z,100030.22
2023-04-19T13:47:16.018Z,100037.94
2023-04-19T13:50:18.602Z,100028.50
2023-04-19T13:53:21.349Z,100029.53
2023-04-19T13:56:23.877Z,100029.22
2023-04-19T13:59:26.439Z,100043.38
2023-04-19T14:02:29.284Z,100034.03
2023-04-19T14:05:32.272Z,100030.53
2023-04-19T14:08:35.406Z,100024.31
2023-04-19T14:11:39.079Z,100026.97
2023-04-19T14:14:41.881Z,100028.66
2023-04-19T14:17:44.467Z,100018.38
2023-04-19T14:20:47.349Z,100028.56
2023-04-19T14:23:49.975Z,100019.75
2023-04-19T14:27:03.561Z,100026.72
2023-04-19T14:30:12.496Z,100027.88
2023-04-19T14:33:15.246Z,100030.97
2023-04-19T14:36:17.931Z,100037.16
2023-04-19T14:39:20.487Z,100034.06
2023-04-19T14:42:23.246Z,100022.84
2023-04-19T14:45:26.516Z,100033.88
2023-04-19T14:48:29.549Z,100034.72
2023-04-19T14:51:32.756Z,100026.53
2023-04-19T14:54:35.391Z,100034.63
2023-04-19T14:57:37.904Z,100037.69
2023-04-19T15:00:41.070Z,100032.41
2023-04-19T15:03:44.456Z,100031.66
2023-04-19T15:06:47.333Z,100042.47
2023-04-19T15:09:50.280Z,100033.97
2023-04-19T15:12:52.910Z,100037.81
2023-04-19T15:15:56.064Z,100036.03
2023-04-19T15:18:58.759Z,100039.97
2023-04-19T15:22:03.953Z,100044.34
2023-04-19T15:25:07.322Z,100042.69
2023-04-19T15:28:09.978Z,100043.09
2023-04-19T15:31:12.872Z,100046.19
2023-04-19T15:34:15.308Z,100052.78
2023-04-19T15:37:18.082Z,100056.94
2023-04-19T15:40:21.401Z,100055.59
2023-04-19T15:43:24.989Z,100053.31
2023-04-19T15:46:27.661Z,100063.59
2023-04-19T15:49:30.797Z,100066.53
2023-04-19T15:52:33.642Z,100072.69
2023-04-19T15:55:36.614Z,100068.22
2023-04-19T15:58:39.755Z,100072.81
2023-04-19T16:01:42.748Z,100074.41
2023-04-19T16:04:48.562Z,100064.75
2023-04-19T16:08:09.331Z,100071.56
2023-04-19T16:11:11.937Z,100065.06
2023-04-19T16:14:14.736Z,100067.34
2023-04-19T16:17:17.201Z,100069.56
2023-04-19T16:20:20.685Z,100077.81
2023-04-19T16:23:24.421Z,100071.59
2023-04-19T16:26:27.307Z,100080.09
2023-04-19T16:29:30.800Z,100083.63
2023-04-19T16:32:33.777Z,100086.72
2023-04-19T16:35:36.236Z,100079.78
2023-04-19T16:38:39.214Z,100091.06
2023-04-19T16:41:41.890Z,100092.22
2023-04-19T16:44:44.486Z,100095.22
2023-04-19T16:47:48.191Z,100097.56
2023-04-19T16:50:51.634Z,100090.19
2023-04-19T16:53:54.862Z,100093.84
2023-04-19T16:56:58.059Z,100100.22
2023-04-19T17:00:01.038Z,100107.59
2023-04-19T17:03:04.298Z,100108.72
2023-04-19T17:06:07.097Z,100107.44
2023-04-19T17:09:10.535Z,100119.84
2023-04-19T17:12:13.214Z,100123.94
2023-04-19T17:15:16.709Z,100127.09
2023-04-19T17:18:19.364Z,100130.91
2023-04-19T17:21:22.137Z,100129.38
2023-04-19T17:24:24.800Z,100137.78
2023-04-19T17:27:27.943Z,100143.03
2023-04-19T17:30:30.751Z,100145.03
2023-04-19T17:33:33.485Z,100146.19
2023-04-19T17:36:36.377Z,100155.75
2023-04-19T17:39:39.944Z,100157.63
2023-04-19T17:42:43.086Z,100158.09
2023-04-19T17:45:45.912Z,100163.34
2023-04-19T17:48:48.705Z,100170.19
2023-04-19T17:51:53.379Z,100169.41
2023-04-19T17:54:56.238Z,100175.34
2023-04-19T17:57:59.845Z,100177.44
2023-04-19T18:01:03.448Z,100182.59
2023-04-19T18:04:07.347Z,100191.63
2023-04-19T18:07:10.061Z,100190.84
2023-04-19T18:10:13.105Z,100198.53
2023-04-19T18:13:15.795Z,100195.84
2023-04-19T18:16:19.661Z,100204.50
2023-04-19T18:19:24.016Z,100203.22
2023-04-19T18:22:27.191Z,100213.91
2023-04-19T18:25:30.248Z,100218.72
2023-04-19T18:28:35.592Z,100221.63
2023-04-19T18:31:38.600Z,100218.34
2023-04-19T18:34:42.081Z,100230.28
2023-04-19T18:37:44.843Z,100238.56
2023-04-19T18:40:48.444Z,100235.09
2023-04-19T18:44:19.212Z,100245.59
2023-04-19T18:47:14.542Z,100242.59
2023-04-19T18:50:19.127Z,100249.25
2023-04-19T18:53:22.218Z,100243.06
2023-04-19T18:56:56.101Z,100244.31
2023-04-19T18:59:48.416Z,100255.06
2023-04-19T19:02:52.889Z,100250.38
2023-04-19T19:05:56.680Z,100256.13
2023-04-19T19:09:00.671Z,100254.88
2023-04-19T19:12:04.099Z,100256.38
2023-04-19T19:15:07.806Z,100252.91
2023-04-19T19:18:10.740Z,100251.41
2023-04-19T19:21:13.800Z,100251.63
2023-04-19T19:24:16.967Z,100254.63
2023-04-19T19:27:19.888Z,100260.63
2023-04-19T19:30:23.496Z,100261.81
2023-04-19T19:33:28.769Z,100265.75
2023-04-19T19:36:32.452Z,100264.88
2023-04-19T19:39:35.665Z,100263.81
2023-04-19T19:42:41.393Z,100272.00
2023-04-19T19:45:44.261Z,100278.03
2023-04-19T19:51:58.655Z,100291.91
2023-04-19T19:55:02.689Z,100292.69
2023-04-19T20:01:11.534Z,100296.44
2023-04-19T20:04:15.024Z,100305.59
2023-04-19T20:07:37.397Z,100296.81
2023-04-19T20:10:43.550Z,100304.50
2023-04-19T20:13:46.630Z,100303.41
2023-04-19T20:16:49.920Z,100301.19
2023-04-19T20:19:52.875Z,100301.50
2023-04-19T20:22:56.262Z,100299.94
2023-04-19T20:26:01.361Z,100297.75
2023-04-19T20:29:04.428Z,100294.63
2023-04-19T20:32:08.685Z,100290.72
2023-04-19T20:35:12.483Z,100291.97
2023-04-19T20:38:15.721Z,100299.97
2023-04-19T20:41:19.392Z,100301.81
2023-04-19T20:44:23.293Z,100302.31
2023-04-19T20:47:26.342Z,100306.84
2023-04-19T20:50:29.289Z,100306.06
2023-04-19T20:53:32.467Z,100311.53
2023-04-19T20:56:35.547Z,100312.97
2023-04-19T20:59:39.369Z,100314.38
2023-04-19T21:02:42.367Z,100311.72
2023-04-19T21:05:44.891Z,100307.97
2023-04-19T21:08:47.793Z,100305.28
2023-04-19T21:11:50.318Z,100309.94
2023-04-19T21:14:53.775Z,100306.19
2023-04-19T21:17:56.443Z,100307.13
2023-04-19T21:20:59.312Z,100297.09
2023-04-19T21:24:08.669Z,100297.09
2023-04-19T21:27:11.416Z,100304.28
2023-04-19T21:30:14.268Z,100303.50
2023-04-19T21:33:18.362Z,100307.91
2023-04-19T21:36:20.971Z,100315.13
2023-04-19T21:39:23.944Z,100306.00
2023-04-19T21:42:26.336Z,100303.00
2023-04-19T21:45:29.131Z,100305.81
2023-04-19T21:48:31.971Z,100305.66
2023-04-19T21:51:34.603Z,100295.00
2023-04-19T21:54:37.409Z,100311.03
2023-04-19T21:57:40.093Z,100310.06
2023-04-19T22:00:43.017Z,100312.25
2023-04-19T22:03:46.715Z,100318.84
2023-04-19T22:06:49.561Z,100326.19
2023-04-19T22:09:52.626Z,100326.19
2023-04-19T22:12:58.836Z,100325.88
2023-04-19T22:16:02.770Z,100325.09
2023-04-19T22:19:05.888Z,100331.72
2023-04-19T22:22:08.616Z,100334.88
2023-04-19T22:25:11.445Z,100341.44
2023-04-19T22:28:14.316Z,100331.41
2023-04-19T22:31:16.922Z,100340.63
2023-04-19T22:34:19.907Z,100346.44
2023-04-19T22:37:22.910Z,100340.63
2023-04-19T22:40:25.561Z,100350.56
2023-04-19T22:43:28.483Z,100345.09
2023-04-19T22:46:31.333Z,100344.47
2023-04-19T22:49:33.794Z,100348.41
2023-04-19T22:52:37.581Z,100343.69
2023-04-19T22:55:40.561Z,100348.31
2023-04-19T22:58:43.756Z,100350.69
2023-04-19T23:01:46.533Z,100350.31
2023-04-19T23:04:50.012Z,100344.16
2023-04-19T23:07:53.334Z,100352.72
2023-04-19T23:10:56.517Z,100343.00
2023-04-19T23:13:59.314Z,100359.78
2023-04-19T23:17:03.093Z,100352.59
2023-04-19T23:20:09.502Z,100358.88
2023-04-19T23:23:12.282Z,100352.53
2023-04-19T23:26:15.303Z,100355.84
2023-04-19T23:29:18.162Z,100353.50
2023-04-19T23:32:21.327Z,100342.38
2023-04-19T23:35:24.282Z,100327.34
2023-04-19T23:38:26.724Z,100335.06
2023-04-19T23:41:29.421Z,100325.47
2023-04-19T23:44:31.897Z,100323.75
2023-04-19T23:47:34.770Z,100327.22
2023-04-19T23:50:37.651Z,100326.91
2023-04-19T23:53:40.749Z,100330.56
2023-04-19T23:56:45.421Z,100325.72
2023-04-19T23:59:48.521Z,100330.84
